Scroll down
FLIGHT INFORMATION
British Airways

BAW2256

At Arrival Gate

TGPY
 TAPA
DATE: 2021-09-04
GATE:  -
GATE DEPARTURE: 21:45
TAKEOFF: 21:55
DATE: 2021-09-04
GATE:  -
LANDING: 22:47
GATE ARRIVAL: 22:51
FLIGHT DATA
Crew: 
Speed: 
902 kph
Altitude: 
37,016 ft
Stage Length: 
570.7 km
Block Time: 
1 hrs
Flight Time: 
0.9 hrs
Fuel Used: 
6,185 kg
Cleared Route: TGPY EMKIS LIMBO ANU TAPA
TRACK DATA
50,000 ft 1,000 kts
AIRCRAFT INFO AND CUMULATIVE STATS
Aircraft Type: 
B772
Registration: 
SELCAL: 
JQKS
MSN/LN: 
29322 / 203
Operator: 
Total Flights: 
12
Total Block Time: 
58.9 hrs
Total Flight Time: 
55.7 hrs
Total Fuel Used: 
371,320 kg
DATALINK LOG | Newest first | Current as of: 2022-10-05 09:45:24
LABEL SEQUENCE CONTENT Dn/Up
5Z54124 SEP 21 22:53:22z / FLT DECK GOOD / ACF POS GOOD / GRND SERVICES GOOD / MAINT GOOD▼ Dn
QD510922:51 18.8▼ Dn
QC470622:47▼ Dn
2U4211TAPA 042200Z 09008KT 050V140 9999 FEW020 29/23 Q1013 NOSIG▲ Up
2S4301TAPA▼ Dn
GA0736ADVANCED GATE ASSIGNMENTS NOT YET AVAILABLE AT THIS AIRPORT▲ Up
GR0726TAPA 22:45 MAAS 00 YP/UM 00/00 WCHR/S/C 00/00/00 HI-VAL NO DIPL/VIP NO▼ Dn
2U0503TAPA 042100Z 09008KT 050V140 9999 FEW020 29/23 Q1013 NOSIG▲ Up
2S0524TAPA▼ Dn
QB561521:55▼ Dn
QA460521:45 32.6▼ Dn
5Z37574 SEP 21 21:37:42z / FLT DECK GOOD / ACF POS GOOD / GRND SERVICES GOOD / MAINT GOOD▼ Dn
2U2824TGPY 042100Z 09023KT 9999 SCT016 29/25 Q1009 NOSIG ADJ SHRA-NE▲ Up
2S2849TGPY▼ Dn
A32454CLEARED TO TAPA VIA EMKIS UL205 ANU. SQUAWK 3473.▲ Up
B32445TGPY TAPA BAW2256 G-VIIR ▼ Dn
Q05617[LINK ACK]▲ Up
Q05617[LINK TEST]▼ Dn


AIRCRAFT HISTORY
FLIGHT DATE FLIGHT NO. ORIGIN DESTINATION CLEARED ROUTE BLOCK TIME FLIGHT TIME FUEL USED PILOT
2021-09-06BAW2156TAPA EGKK TAPA ANU AMTTO 1960N 2455N 2752N 2950N 3940N 4330N 4620N OMOKO GUNSO GAPLI TESDO RIGDI SIDDI ORVUX DAWLY ELRIP OTMET EGKK7.8 hrs7.6 hrs104,470 lbAnton Vind
2021-09-04BAW2256TGPY TAPA TGPY EMKIS LIMBO ANU TAPA1 hrs0.9 hrs13,636 lbAnton Vind
2021-09-04BAW2157TAPA TGPY TAPA ANU LIMBO EMKIS DUSAL TGPY1.1 hrs0.9 hrs14,095 lbAnton Vind
2021-09-02BAW2157EGKK TAPA EGKK IMVUR VOUGA SAM NULGU ADKIK KOXOD JOZMA SOPTU UNPUP GAPLI OMOKO 4720N 4330N 4040N 3645N 3150N 2655N 1960N AMTTO ANU TAPA8.1 hrs7.8 hrs109,552 lbAnton Vind
2021-02-26BAW1622KTPA EGKK KTPA FINKI BAYPO ECAKE WILON SPRNG CAMJO HEPAR TEEEM RIELE PANDY MULLS HASET BLAMO TYI FKN SWL WARNN ZIZZI YAZUU EMJAY GEDIC RIFLE ACK KANNI SUPRY 4650N 4940N 5230N 5320N MALOT GISTI NORLA MERLY DIDEL FONZU ELRIP OTMET EGKK8.2 hrs8 hrs111,145 lb-HIDDEN-
2021-02-22BAW1603EGKK KTPA EGKK KKW07 KKW09 MID NOVMA NIBDA HAZEL SAM NULGU ADKIK HICAP MERLY MOPAT RESNO 5620N 5730N 5640N 5450N NEEKO ALLEX OWENZ DIW ILM METTA DADES KTPA9.5 hrs9.3 hrs133,923 lb-HIDDEN-
2021-02-21BAW236EGPF EGKK EGPF XEXUS ELBAN TRN35 NORBO ORVUL OSMEG RIPNO DCS SUBUK KEPAD TELBA VIDOK UMLUX PEPUL DISIT KIDLI MID TUFOZ HOLLY WILLO CF08R RW08R1.5 hrs1.2 hrs19,509 lb-HIDDEN-
2021-02-21BAW885EGKK EGPF EGKK KKW02 KKE09 KKE11 KKE15 SUNAV KKE35 KKN43 KKN48 LAM BPK POTON BEDFO EBOTO PIPIN LESTA EMBOR XAPOS BOLBI ULSAX POL NELSA RIBEL EGPF1.3 hrs1 hrs17,663 lb-HIDDEN-
2021-02-20BAW1622KTPA EGKK KTPA CAMJO HEPAR TEEEM RIELE PANDY MULLS HASET BLAMO TYI FKN SWL WARNN ZIZZI YAZUU EMJAY GEDIC RIFLE ACK KANNI SUPRY 4650N 4840N 4930N 5020N SOMAX ATSUR GAPLI TESDO RIGDI SIDDI ORVUX DAWLY ELRIP OTMET EGKK7.7 hrs7.5 hrs117,758 lb-HIDDEN-
2021-02-19BAW1623EGKK KTPA EGKK KKE05 KKN09 KKW19 IMVUR VOUGA SAM NULGU ADKIK HICAP MERLY MOPAT SUNOT 5820N 5930N 5840N 5650N JANJO TAFFY GDM JFK JOANI VILLS NALES TYI BLAMO HASET MULLS CHS DADES KTPA10.3 hrs10 hrs147,969 lb-HIDDEN-
2021-02-15BAW710EGCC EGKK EGCC D057A D186X POL28 POL33 LISTO HON KIDLI MID TUFOZ HOLLY WILLO TIMBA RW26L1.1 hrs0.7 hrs14,699 lb-HIDDEN-
2021-02-11BAW211EGGK EGCC EGKK LAM WELIN AKUPA TIMPO ELVOS TNT EGCC1.2 hrs0.8 hrs14,202 lb-HIDDEN-